createdAt,value
2023-03-24T00:04:29.623Z,11.59
2023-03-24T00:09:32.889Z,11.61
2023-03-24T00:14:34.798Z,11.49
2023-03-24T00:19:36.844Z,11.42
2023-03-24T00:24:40.466Z,11.27
2023-03-24T00:29:42.308Z,11.18
2023-03-24T00:34:44.207Z,11.19
2023-03-24T00:39:47.386Z,11.02
2023-03-24T00:44:49.436Z,11.03
2023-03-24T00:49:51.226Z,11.08
2023-03-24T00:54:54.453Z,11.00
2023-03-24T00:59:56.898Z,11.02
2023-03-24T01:05:00.364Z,11.13
2023-03-24T01:10:03.881Z,11.05
2023-03-24T01:15:08.887Z,11.03
2023-03-24T01:20:11.381Z,11.05
2023-03-24T01:25:18.165Z,11.15
2023-03-24T01:30:22.098Z,11.15
2023-03-24T01:35:27.700Z,11.10
2023-03-24T01:40:35.424Z,11.04
2023-03-24T01:45:57.919Z,11.19
2023-03-24T01:51:02.633Z,11.25
2023-03-24T01:56:07.563Z,11.37
2023-03-24T02:01:09.708Z,11.39
2023-03-24T02:06:13.750Z,11.28
2023-03-24T02:11:16.821Z,11.19
2023-03-24T02:16:35.208Z,11.13
2023-03-24T02:22:24.312Z,11.22
2023-03-24T02:27:53.337Z,11.15
2023-03-24T02:33:29.890Z,11.14
2023-03-24T02:39:04.566Z,11.07
2023-03-24T02:44:17.179Z,10.96
2023-03-24T02:49:30.087Z,11.07
2023-03-24T02:54:39.927Z,11.03
2023-03-24T02:59:49.977Z,10.99
2023-03-24T03:04:55.186Z,11.08
2023-03-24T03:10:02.403Z,11.14
2023-03-24T03:15:09.672Z,11.29
2023-03-24T03:20:16.105Z,11.38
2023-03-24T03:25:24.102Z,11.35
2023-03-24T03:30:33.650Z,11.67
2023-03-24T03:35:38.867Z,11.90
2023-03-24T03:40:47.145Z,11.87
2023-03-24T03:45:50.381Z,11.84
2023-03-24T03:50:59.869Z,11.93
2023-03-24T03:56:09.055Z,11.71
2023-03-24T04:01:16.270Z,11.89
2023-03-24T04:06:27.306Z,11.73
2023-03-24T04:11:40.002Z,11.86
2023-03-24T04:16:53.097Z,11.90
2023-03-24T04:22:06.223Z,11.82
2023-03-24T04:27:12.557Z,11.89
2023-03-24T04:32:26.638Z,11.93
2023-03-24T04:37:31.300Z,11.93
2023-03-24T04:42:36.167Z,11.96
2023-03-24T04:47:43.929Z,12.02
2023-03-24T04:52:45.629Z,12.12
2023-03-24T04:57:47.340Z,12.17
2023-03-24T05:02:50.517Z,12.10
2023-03-24T05:07:52.205Z,12.07
2023-03-24T05:12:53.862Z,12.16
2023-03-24T05:17:57.289Z,12.10
2023-03-24T05:22:59.127Z,11.98
2023-03-24T05:28:00.782Z,12.14
2023-03-24T05:33:04.321Z,12.13
2023-03-24T05:38:06.157Z,12.12
2023-03-24T05:43:08.095Z,12.09
2023-03-24T05:48:11.226Z,12.06
2023-03-24T05:53:12.967Z,12.08
2023-03-24T05:58:14.797Z,12.08
2023-03-24T06:03:18.200Z,12.18
2023-03-24T06:08:32.030Z,12.22
2023-03-24T06:14:23.090Z,12.13
2023-03-24T06:19:27.261Z,12.25
2023-03-24T06:24:29.756Z,12.34
2023-03-24T06:29:31.698Z,12.33
2023-03-24T06:34:35.050Z,12.33
2023-03-24T06:39:36.960Z,12.37
2023-03-24T06:44:38.859Z,12.32
2023-03-24T06:49:42.019Z,12.30
2023-03-24T06:54:43.862Z,12.28
2023-03-24T06:59:45.713Z,12.53
2023-03-24T07:04:49.062Z,12.59
2023-03-24T07:09:50.863Z,12.69
2023-03-24T07:14:52.702Z,12.82
2023-03-24T07:19:55.738Z,12.76
2023-03-24T07:24:57.383Z,12.85
2023-03-24T07:29:59.116Z,13.41
2023-03-24T07:35:02.082Z,13.21
2023-03-24T07:40:03.986Z,13.26
2023-03-24T07:45:06.585Z,12.94
2023-03-24T07:50:11.204Z,13.00
2023-03-24T07:55:13.055Z,13.01
2023-03-24T08:00:16.567Z,13.11
2023-03-24T08:05:20.577Z,12.90
2023-03-24T08:10:24.282Z,12.80
2023-03-24T08:15:27.579Z,12.75
2023-03-24T08:20:30.790Z,12.75
2023-03-24T08:25:32.780Z,12.79
2023-03-24T08:30:34.646Z,12.81
2023-03-24T08:35:37.891Z,12.53
2023-03-24T08:40:42.031Z,12.46
2023-03-24T08:45:46.544Z,12.45
2023-03-24T08:50:51.095Z,12.23
2023-03-24T08:55:52.844Z,12.03
2023-03-24T09:00:54.513Z,11.92
2023-03-24T09:05:58.401Z,11.82
2023-03-24T09:11:00.360Z,12.03
2023-03-24T09:16:03.779Z,12.10
2023-03-24T09:21:08.020Z,12.18
2023-03-24T09:26:10.349Z,12.16
2023-03-24T09:31:12.129Z,12.14
2023-03-24T09:36:15.168Z,11.92
2023-03-24T09:41:19.364Z,11.95
2023-03-24T09:46:28.675Z,12.03
2023-03-24T09:51:36.100Z,12.20
2023-03-24T09:56:40.016Z,12.22
2023-03-24T10:01:42.029Z,12.45
2023-03-24T10:06:46.642Z,12.93
2023-03-24T10:12:02.685Z,13.21
2023-03-24T10:17:15.522Z,13.24
2023-03-24T10:22:24.972Z,13.20
2023-03-24T10:27:31.679Z,13.37
2023-03-24T10:32:35.646Z,13.62
2023-03-24T10:37:38.754Z,13.95
2023-03-24T10:42:40.706Z,13.95
2023-03-24T10:47:43.486Z,14.30
2023-03-24T10:52:47.772Z,14.02
2023-03-24T10:57:55.460Z,14.34
2023-03-24T11:03:00.497Z,14.57
2023-03-24T11:08:23.525Z,14.24
2023-03-24T11:13:31.061Z,14.57
2023-03-24T11:18:32.929Z,14.59
2023-03-24T11:23:38.975Z,14.67
2023-03-24T11:28:45.268Z,14.72
2023-03-24T11:33:51.621Z,14.92
2023-03-24T11:39:01.825Z,14.58
2023-03-24T11:44:19.873Z,14.46
2023-03-24T11:49:25.829Z,14.48
2023-03-24T11:54:33.798Z,14.34
2023-03-24T11:59:42.434Z,14.61
2023-03-24T12:05:02.819Z,14.60
2023-03-24T12:10:17.997Z,14.59
2023-03-24T12:15:30.840Z,14.95
2023-03-24T12:20:39.462Z,15.03
2023-03-24T12:26:00.330Z,14.77
2023-03-24T12:31:13.697Z,14.97
2023-03-24T12:36:30.167Z,15.01
2023-03-24T12:42:03.976Z,14.76
2023-03-24T12:47:18.934Z,14.95
2023-03-24T12:52:42.766Z,14.82
2023-03-24T12:57:50.449Z,14.99
2023-03-24T13:02:57.272Z,15.12
2023-03-24T13:08:02.169Z,14.84
2023-03-24T13:13:11.740Z,15.08
2023-03-24T13:18:26.126Z,15.10
2023-03-24T13:23:38.438Z,15.27
2023-03-24T13:28:50.649Z,15.09
2023-03-24T13:33:54.693Z,15.04
2023-03-24T13:39:00.820Z,14.75
2023-03-24T13:44:08.301Z,14.67
2023-03-24T13:49:13.698Z,14.85
2023-03-24T13:54:18.783Z,14.92
2023-03-24T13:59:28.052Z,15.08
2023-03-24T14:04:44.642Z,14.82
2023-03-24T14:09:59.027Z,14.86
2023-03-24T14:15:15.448Z,14.88
2023-03-24T14:20:32.478Z,14.85
2023-03-24T14:25:34.542Z,14.83
2023-03-24T14:30:55.999Z,14.74
2023-03-24T14:36:03.724Z,15.16
2023-03-24T14:41:08.579Z,15.19
2023-03-24T14:46:35.168Z,15.00
2023-03-24T14:51:40.940Z,14.61
2023-03-24T14:56:45.238Z,14.59
2023-03-24T15:01:55.095Z,14.54
2023-03-24T15:06:56.728Z,14.65
2023-03-24T15:12:00.288Z,14.68
2023-03-24T15:17:08.868Z,14.73
2023-03-24T15:22:12.564Z,14.62
2023-03-24T15:27:19.551Z,14.66
2023-03-24T15:32:24.763Z,14.71
2023-03-24T15:37:32.761Z,14.76
2023-03-24T15:42:41.238Z,14.80
2023-03-24T15:47:44.270Z,14.48
2023-03-24T15:52:59.056Z,14.28
2023-03-24T15:58:02.678Z,14.09
2023-03-24T16:03:06.380Z,13.94
2023-03-24T16:08:25.795Z,13.93
2023-03-24T16:13:27.934Z,13.84
2023-03-24T16:18:34.088Z,13.86
2023-03-24T16:23:35.702Z,13.76
2023-03-24T16:28:37.282Z,13.69
2023-03-24T16:33:43.373Z,13.73
2023-03-24T16:38:45.152Z,13.60
2023-03-24T16:43:46.850Z,13.64
2023-03-24T16:48:49.958Z,13.57
2023-03-24T16:53:51.589Z,13.49
2023-03-24T16:58:53.428Z,13.43
2023-03-24T17:03:57.897Z,13.38
2023-03-24T17:08:59.709Z,13.26
2023-03-24T17:14:01.417Z,13.27
2023-03-24T17:19:05.110Z,13.07
2023-03-24T17:24:08.035Z,12.89
2023-03-24T17:29:10.395Z,12.83
2023-03-24T17:39:21.474Z,12.92
2023-03-24T17:44:23.224Z,13.00
2023-03-24T17:49:26.400Z,12.99
2023-03-24T17:54:28.190Z,12.92
2023-03-24T17:59:29.849Z,12.82
2023-03-24T18:04:34.443Z,12.81
2023-03-24T18:09:36.377Z,12.72
2023-03-24T18:14:38.037Z,12.57
2023-03-24T18:19:41.070Z,12.53
2023-03-24T18:24:42.870Z,11.77
2023-03-24T18:29:44.802Z,11.19
2023-03-24T18:34:47.848Z,10.99
2023-03-24T18:39:49.616Z,10.69
2023-03-24T18:44:51.388Z,10.36
2023-03-24T18:49:54.659Z,10.24
2023-03-24T18:54:56.378Z,10.09
2023-03-24T18:59:58.057Z,10.01
2023-03-24T19:05:01.275Z,10.11
2023-03-24T19:10:02.987Z,10.29
2023-03-24T19:15:05.919Z,10.34
2023-03-24T19:20:10.295Z,10.08
2023-03-24T19:25:12.041Z,9.86
2023-03-24T19:30:13.874Z,9.65
2023-03-24T19:35:17.167Z,9.57
2023-03-24T19:40:19.033Z,9.36
2023-03-24T19:45:20.821Z,9.24
2023-03-24T19:50:24.118Z,9.24
2023-03-24T19:55:26.176Z,9.35
2023-03-24T20:00:30.923Z,9.38
2023-03-24T20:05:34.773Z,9.41
2023-03-24T20:10:37.462Z,9.34
2023-03-24T20:15:39.248Z,9.36
2023-03-24T20:20:42.307Z,9.25
2023-03-24T20:25:44.078Z,9.62
2023-03-24T20:30:45.726Z,9.65
2023-03-24T20:35:49.201Z,9.76
2023-03-24T20:40:57.950Z,9.68
2023-03-24T20:45:59.729Z,9.77
2023-03-24T20:51:03.319Z,9.79
2023-03-24T20:56:07.186Z,9.82
2023-03-24T21:01:11.567Z,9.88
2023-03-24T21:06:14.886Z,9.89
2023-03-24T21:11:16.600Z,9.77
2023-03-24T21:16:19.083Z,9.72
2023-03-24T21:21:22.598Z,9.63
2023-03-24T21:26:24.889Z,9.67
2023-03-24T21:31:28.153Z,9.68
2023-03-24T21:36:31.216Z,9.56
2023-03-24T21:41:33.033Z,9.49
2023-03-24T21:46:35.070Z,9.34
2023-03-24T21:51:38.274Z,9.14
2023-03-24T21:56:40.156Z,9.06
2023-03-24T22:01:41.978Z,8.99
2023-03-24T22:06:45.127Z,9.03
2023-03-24T22:11:46.871Z,9.08
2023-03-24T22:16:48.609Z,9.21
2023-03-24T22:21:51.779Z,9.05
2023-03-24T22:26:53.517Z,9.10
2023-03-24T22:31:55.552Z,9.47
2023-03-24T22:36:58.731Z,9.42
2023-03-24T22:42:00.766Z,9.53
2023-03-24T22:47:02.823Z,9.41
2023-03-24T22:52:06.231Z,9.20
2023-03-24T22:57:07.947Z,9.32
2023-03-24T23:02:10.510Z,9.06
2023-03-24T23:07:13.851Z,8.81
2023-03-24T23:12:15.591Z,8.99
2023-03-24T23:17:17.315Z,8.71
2023-03-24T23:22:20.619Z,8.58
2023-03-24T23:27:22.398Z,8.59
2023-03-24T23:32:24.123Z,8.46
2023-03-24T23:37:27.172Z,8.37
2023-03-24T23:42:28.898Z,8.26
2023-03-24T23:47:31.448Z,8.30
2023-03-24T23:52:34.912Z,8.37
2023-03-24T23:57:36.707Z,8.46
